createdAt,value
2017-07-17T00:00:01.744Z,46.5
2017-07-17T00:03:03.374Z,46.4
2017-07-17T00:04:04.838Z,46.6
2017-07-17T00:05:06.277Z,46.5
2017-07-17T00:06:08.411Z,46.5
2017-07-17T00:07:10.190Z,46.5
2017-07-17T00:08:12.322Z,46.7
2017-07-17T00:09:14.100Z,46.8
2017-07-17T00:10:16.236Z,46.5
2017-07-17T00:11:17.343Z,46.4
2017-07-17T00:12:18.812Z,46.6
2017-07-17T00:13:20.591Z,46.4
2017-07-17T00:14:22.724Z,46.6
2017-07-17T00:15:24.523Z,46.7
2017-07-17T00:16:26.657Z,46.7
2017-07-17T00:17:28.457Z,46.6
2017-07-17T00:18:30.256Z,46.6
2017-07-17T00:19:32.055Z,46.6
2017-07-17T00:20:33.855Z,46.7
2017-07-17T00:21:34.988Z,46.6
2017-07-17T00:22:36.788Z,46.7
2017-07-17T00:23:38.258Z,46.6
2017-07-17T00:24:40.387Z,46.9
2017-07-17T00:25:42.189Z,46.9
2017-07-17T00:26:44.324Z,46.7
2017-07-17T00:27:46.176Z,46.8
2017-07-17T00:28:48.311Z,46.9
2017-07-17T00:29:50.445Z,46.7
2017-07-17T00:30:51.553Z,47
2017-07-17T00:31:53.353Z,46.9
2017-07-17T00:32:55.484Z,46.6
2017-07-17T00:33:56.591Z,46.6
2017-07-17T00:34:58.724Z,46.7
2017-07-17T00:36:00.859Z,46.9
2017-07-17T00:37:02.637Z,46.8
2017-07-17T00:38:04.414Z,46.8
2017-07-17T00:39:06.546Z,46.9
2017-07-17T00:40:08.682Z,46.8
2017-07-17T00:41:10.840Z,46.9
2017-07-17T00:42:12.638Z,46.8
2017-07-17T00:43:14.439Z,47
2017-07-17T00:44:16.243Z,46.8
2017-07-17T00:45:18.378Z,47.1
2017-07-17T00:46:20.180Z,46.9
2017-07-17T00:47:21.981Z,46.9
2017-07-17T00:48:24.125Z,46.7
2017-07-17T00:49:25.577Z,47.1
2017-07-17T00:50:27.375Z,46.8
2017-07-17T00:51:29.534Z,46.8
2017-07-17T00:52:31.665Z,46.8
2017-07-17T00:53:33.108Z,46.8
2017-07-17T00:54:35.241Z,47
2017-07-17T00:55:37.042Z,46.7
2017-07-17T00:56:38.505Z,47
2017-07-17T00:57:40.639Z,46.9
2017-07-17T00:58:42.438Z,47
2017-07-17T00:59:44.234Z,46.9
2017-07-17T01:00:46.033Z,47
2017-07-17T01:01:47.499Z,46.9
2017-07-17T01:02:49.305Z,46.8
2017-07-17T01:03:50.768Z,46.7
2017-07-17T01:04:51.871Z,46.9
2017-07-17T01:05:54.005Z,47.1
2017-07-17T01:06:55.808Z,47.1
2017-07-17T01:07:57.608Z,46.8
2017-07-17T01:08:59.431Z,46.8
2017-07-17T01:10:01.283Z,47.1
2017-07-17T01:11:02.731Z,47
2017-07-17T01:12:04.205Z,47.1
2017-07-17T01:13:06.005Z,47
2017-07-17T01:14:07.784Z,47.1
2017-07-17T01:15:09.250Z,47.1
2017-07-17T01:16:11.051Z,46.9
2017-07-17T01:17:12.851Z,47.1
2017-07-17T01:18:14.294Z,47
2017-07-17T01:19:16.428Z,47
2017-07-17T01:20:18.230Z,46.9
2017-07-17T01:21:20.366Z,47
2017-07-17T01:22:21.830Z,46.9
2017-07-17T01:23:23.271Z,47
2017-07-17T01:24:25.071Z,46.9
2017-07-17T01:25:26.534Z,47.2
2017-07-17T01:26:28.666Z,47
2017-07-17T01:27:29.777Z,46.9
2017-07-17T01:28:31.914Z,47.1
2017-07-17T01:29:34.045Z,46.9
2017-07-17T01:30:35.874Z,47.1
2017-07-17T01:31:37.673Z,47.1
2017-07-17T01:32:38.778Z,46.9
2017-07-17T01:33:40.913Z,47.1
2017-07-17T01:34:43.044Z,47.1
2017-07-17T01:35:44.511Z,47.1
2017-07-17T01:36:46.288Z,47.1
2017-07-17T01:37:47.395Z,47.1
2017-07-17T01:38:49.192Z,47.1
2017-07-17T01:39:50.656Z,47.1
2017-07-17T01:40:52.790Z,47.1
2017-07-17T01:41:54.591Z,47.1
2017-07-17T01:42:56.037Z,47.1
2017-07-17T01:43:58.188Z,47.1
2017-07-17T01:45:00.321Z,47.1
2017-07-17T01:46:02.098Z,47.1
2017-07-17T01:47:04.232Z,47.1
2017-07-17T01:48:06.031Z,47.1
2017-07-17T01:49:07.809Z,47.1
2017-07-17T01:50:09.941Z,47
2017-07-17T01:51:11.720Z,47.1
2017-07-17T01:52:13.854Z,47.1
2017-07-17T01:53:15.319Z,47.1
2017-07-17T01:54:17.117Z,47.1
2017-07-17T01:55:18.557Z,47.2
2017-07-17T01:56:20.024Z,47.1
2017-07-17T01:57:22.163Z,47.1
2017-07-17T01:58:24.293Z,47.1
2017-07-17T01:59:26.468Z,47.1
2017-07-17T02:00:28.269Z,47.2
2017-07-17T02:01:30.051Z,47.1
2017-07-17T02:02:31.491Z,47.1
2017-07-17T02:03:33.627Z,47.2
2017-07-17T02:04:35.761Z,47.4
2017-07-17T02:05:37.895Z,47.3
2017-07-17T02:06:39.696Z,47.2
2017-07-17T02:07:41.838Z,47.3
2017-07-17T02:08:43.616Z,47.3
2017-07-17T02:09:45.416Z,47.1
2017-07-17T02:10:47.213Z,47.3
2017-07-17T02:11:48.993Z,47.3
2017-07-17T02:12:50.105Z,47.4
2017-07-17T02:13:51.567Z,47.3
2017-07-17T02:14:53.343Z,47.2
2017-07-17T02:15:55.477Z,47.3
2017-07-17T02:16:56.917Z,47.3
2017-07-17T02:17:59.074Z,47.2
2017-07-17T02:19:00.515Z,47.3
2017-07-17T02:20:02.052Z,47.5
2017-07-17T02:21:03.828Z,47.4
2017-07-17T02:22:05.961Z,47.4
2017-07-17T02:23:07.425Z,47.3
2017-07-17T02:24:09.227Z,47.4
2017-07-17T02:25:11.361Z,47.4
2017-07-17T02:26:13.494Z,47.5
2017-07-17T02:27:15.293Z,47.5
2017-07-17T02:28:17.092Z,47.4
2017-07-17T02:29:19.313Z,47.4
2017-07-17T02:30:21.478Z,47.4
2017-07-17T02:31:23.611Z,47.4
2017-07-17T02:32:25.411Z,47.3
2017-07-17T02:33:26.517Z,47.5
2017-07-17T02:34:28.316Z,47.1
2017-07-17T02:35:30.450Z,47.4
2017-07-17T02:36:31.891Z,47.2
2017-07-17T02:37:32.996Z,47.5
2017-07-17T02:38:35.130Z,47.6
2017-07-17T02:39:37.264Z,47.2
2017-07-17T02:40:39.399Z,47.3
2017-07-17T02:41:41.174Z,47.2
2017-07-17T02:42:42.631Z,47.3
2017-07-17T02:43:43.498Z,47.2
2017-07-17T02:44:45.632Z,47.6
2017-07-17T02:45:46.742Z,47.3
2017-07-17T02:46:48.541Z,47.3
2017-07-17T02:47:50.675Z,47.1
2017-07-17T02:48:52.473Z,47.5
2017-07-17T02:49:54.272Z,47.3
2017-07-17T02:50:55.045Z,47.3
2017-07-17T02:51:56.507Z,47.1
2017-07-17T02:52:58.304Z,47.2
2017-07-17T02:54:00.439Z,47.5
2017-07-17T02:55:01.887Z,47.7
2017-07-17T02:56:03.350Z,47.6
2017-07-17T02:57:05.147Z,47.6
2017-07-17T02:58:07.317Z,47.6
2017-07-17T02:59:09.091Z,47.4
2017-07-17T03:00:10.536Z,47.4
2017-07-17T03:01:11.646Z,47.5
2017-07-17T03:02:13.423Z,47.2
2017-07-17T03:03:14.866Z,47.8
2017-07-17T03:04:16.665Z,47.1
2017-07-17T03:05:18.798Z,47.2
2017-07-17T03:06:20.267Z,47.6
2017-07-17T03:07:22.398Z,47.3
2017-07-17T03:08:23.844Z,47.2
2017-07-17T03:09:25.642Z,47.6
2017-07-17T03:10:27.445Z,47.7
2017-07-17T03:11:28.911Z,47.2
2017-07-17T03:12:30.357Z,47.6
2017-07-17T03:13:32.160Z,47.4
2017-07-17T03:14:33.602Z,47.6
2017-07-17T03:15:35.737Z,47.4
2017-07-17T03:16:37.871Z,47.1
2017-07-17T03:17:40.006Z,47.4
2017-07-17T03:18:42.141Z,47.4
2017-07-17T03:19:44.275Z,47.6
2017-07-17T03:20:46.075Z,47.5
2017-07-17T03:21:47.188Z,47.6
2017-07-17T03:22:48.659Z,47.6
2017-07-17T03:23:50.461Z,47.4
2017-07-17T03:24:51.927Z,47.6
2017-07-17T03:25:53.407Z,47.4
2017-07-17T03:26:55.194Z,47.7
2017-07-17T03:27:57.327Z,47.3
2017-07-17T03:28:59.464Z,47.6
2017-07-17T03:30:00.908Z,47.1
2017-07-17T03:31:02.693Z,47.5
2017-07-17T03:32:04.823Z,47.4
2017-07-17T03:33:06.291Z,47.7
2017-07-17T03:34:08.093Z,47.5
2017-07-17T03:35:09.890Z,47.6
2017-07-17T03:36:12.024Z,47.8
2017-07-17T03:37:13.821Z,47.6
2017-07-17T03:38:15.625Z,47.7
2017-07-17T03:39:17.423Z,47.4
2017-07-17T03:40:19.230Z,47.7
2017-07-17T03:41:21.358Z,47.8
2017-07-17T03:42:23.499Z,47.8
2017-07-17T03:43:24.959Z,47.6
2017-07-17T03:44:26.424Z,48
2017-07-17T03:45:28.222Z,47.5
2017-07-17T03:46:29.662Z,48.1
2017-07-17T03:47:31.467Z,47.4
2017-07-17T03:48:33.269Z,47.5
2017-07-17T03:49:35.407Z,47.4
2017-07-17T03:50:36.850Z,47.5
2017-07-17T03:51:38.648Z,47.7
2017-07-17T03:52:40.429Z,47.5
2017-07-17T03:53:42.231Z,47.8
2017-07-17T03:54:43.696Z,47.9
2017-07-17T03:55:45.829Z,47.8
2017-07-17T03:56:47.629Z,47.9
2017-07-17T03:57:49.768Z,47.8
2017-07-17T03:58:51.906Z,47.9
2017-07-17T03:59:54.044Z,47.8
2017-07-17T04:00:55.843Z,47.6
2017-07-17T04:01:57.983Z,47.5
2017-07-17T04:02:59.755Z,47.6
2017-07-17T04:04:01.554Z,47.5
2017-07-17T04:05:02.997Z,47.6
2017-07-17T04:06:04.130Z,47.7
2017-07-17T04:07:06.266Z,47.7
2017-07-17T04:08:07.730Z,47.8
2017-07-17T04:09:09.176Z,47.6
2017-07-17T04:10:10.643Z,47.8
2017-07-17T04:11:12.421Z,47.7
2017-07-17T04:12:14.200Z,47.8
2017-07-17T04:13:15.638Z,47.8
2017-07-17T04:14:17.104Z,47.8
2017-07-17T04:15:18.218Z,47.8
2017-07-17T04:16:19.660Z,48
2017-07-17T04:17:21.795Z,47.8
2017-07-17T04:18:23.934Z,47.6
2017-07-17T04:19:25.044Z,47.6
2017-07-17T04:20:26.821Z,47.8
2017-07-17T04:21:28.622Z,47.8
2017-07-17T04:22:29.754Z,47.6
2017-07-17T04:23:31.531Z,47.5
2017-07-17T04:24:32.993Z,47.9
2017-07-17T04:25:34.435Z,47.6
2017-07-17T04:26:36.575Z,47.9
2017-07-17T04:27:38.711Z,47.6
2017-07-17T04:28:40.512Z,47.7
2017-07-17T04:29:41.953Z,47.6
2017-07-17T04:30:43.062Z,47.6
2017-07-17T04:31:44.846Z,47.9
2017-07-17T04:32:46.648Z,47.6
2017-07-17T04:33:47.416Z,47.8
2017-07-17T04:34:49.551Z,48
2017-07-17T04:35:51.689Z,47.8
2017-07-17T04:36:53.490Z,47.5
2017-07-17T04:37:55.621Z,47.5
2017-07-17T04:38:57.473Z,48.1
2017-07-17T04:39:59.272Z,47.6
2017-07-17T04:41:00.721Z,48
2017-07-17T04:42:02.852Z,47.5
2017-07-17T04:43:04.294Z,47.6
2017-07-17T04:44:06.429Z,47.7
2017-07-17T04:45:07.897Z,47.9
2017-07-17T04:46:09.699Z,47.7
2017-07-17T04:47:11.503Z,47.8
2017-07-17T04:48:13.635Z,47.5
2017-07-17T04:49:15.435Z,47.7
2017-07-17T04:50:16.887Z,47.8
2017-07-17T04:51:19.021Z,47.9
2017-07-17T04:52:21.155Z,47.7
2017-07-17T04:53:23.291Z,47.7
2017-07-17T04:56:45.670Z,48
2017-07-17T04:57:47.800Z,47.7
2017-07-17T05:00:00.050Z,47.8
2017-07-17T05:01:02.187Z,47.8
2017-07-17T05:02:03.989Z,47.8
2017-07-17T05:03:06.125Z,47.8
2017-07-17T05:04:08.265Z,47.9
2017-07-17T05:05:10.071Z,48.1
2017-07-17T05:06:11.508Z,48
2017-07-17T05:07:13.643Z,47.8
2017-07-17T05:08:15.821Z,47.8
2017-07-17T05:09:17.953Z,47.7
2017-07-17T05:10:20.087Z,47.7
2017-07-17T05:11:22.217Z,47.7
2017-07-17T05:12:24.021Z,47.9
2017-07-17T05:13:25.466Z,47.7
2017-07-17T05:14:26.912Z,47.5
2017-07-17T05:15:28.379Z,48
2017-07-17T05:16:30.179Z,48
2017-07-17T05:17:31.978Z,47.6
2017-07-17T05:18:33.753Z,47.7
2017-07-17T05:19:34.863Z,47.5
2017-07-17T05:20:36.303Z,47.6
2017-07-17T05:21:38.104Z,47.6
2017-07-17T05:22:40.236Z,47.9
2017-07-17T05:23:41.348Z,47.8
2017-07-17T05:24:43.146Z,47.7
2017-07-17T05:25:45.282Z,47.8
2017-07-17T05:26:47.418Z,47.8
2017-07-17T05:27:49.226Z,47.9
2017-07-17T05:28:51.003Z,47.8
2017-07-17T05:29:53.133Z,47.9
2017-07-17T05:30:54.241Z,48
2017-07-17T05:31:56.045Z,47.6
2017-07-17T05:32:57.845Z,47.7
2017-07-17T05:33:59.644Z,47.7
2017-07-17T05:35:01.784Z,47.8
2017-07-17T05:36:03.229Z,47.7
2017-07-17T05:37:05.029Z,47.4
2017-07-17T05:38:06.827Z,47.7
2017-07-17T05:39:08.629Z,47.6
2017-07-17T05:40:10.077Z,47.9
2017-07-17T05:41:12.215Z,47.7
2017-07-17T05:42:13.662Z,47.8
2017-07-17T05:43:15.799Z,48.4
2017-07-17T05:44:17.247Z,48.2
2017-07-17T05:45:19.047Z,48
2017-07-17T05:46:20.517Z,48
2017-07-17T05:47:22.655Z,48.1
2017-07-17T05:48:23.766Z,47.9
2017-07-17T05:49:25.901Z,47.6
2017-07-17T05:50:27.681Z,47.9
2017-07-17T05:51:29.816Z,47.8
2017-07-17T05:52:31.280Z,48.4
2017-07-17T05:53:32.747Z,48.1
2017-07-17T05:54:34.211Z,48.3
2017-07-17T05:55:36.011Z,48.3
2017-07-17T05:56:37.478Z,48.2
2017-07-17T05:57:39.279Z,47.9
2017-07-17T05:58:40.056Z,48
2017-07-17T05:59:41.855Z,47.9
2017-07-17T06:00:43.990Z,48
2017-07-17T06:01:45.769Z,48.2
2017-07-17T06:02:47.219Z,48.3
2017-07-17T06:03:49.369Z,48.2
2017-07-17T06:04:51.505Z,48
2017-07-17T06:05:53.286Z,47.9
2017-07-17T06:06:54.750Z,47.5
2017-07-17T06:07:56.889Z,47.7
2017-07-17T06:08:58.333Z,47.8
2017-07-17T06:10:00.139Z,47.9
2017-07-17T06:11:01.937Z,47.9
2017-07-17T06:12:03.716Z,47.8
2017-07-17T06:13:04.835Z,47.8
2017-07-17T06:14:06.637Z,47.8
2017-07-17T06:15:08.436Z,47.9
2017-07-17T06:16:10.214Z,47.7
2017-07-17T06:17:10.991Z,47.2
2017-07-17T06:18:12.456Z,47.4
2017-07-17T06:19:14.593Z,47.5
2017-07-17T06:20:16.039Z,47.4
2017-07-17T06:21:17.507Z,47.2
2017-07-17T06:22:19.643Z,47.1
2017-07-17T06:23:21.443Z,47.3
2017-07-17T06:24:23.251Z,47.1
2017-07-17T06:25:24.360Z,47.2
2017-07-17T06:26:25.825Z,47.2
2017-07-17T06:27:27.288Z,46.7
2017-07-17T06:28:29.089Z,47.1
2017-07-17T06:29:30.537Z,47.1
2017-07-17T06:30:32.004Z,47
2017-07-17T06:31:33.237Z,47
2017-07-17T06:32:34.347Z,47.1
2017-07-17T06:33:36.147Z,46.9
2017-07-17T06:34:38.284Z,47.2
2017-07-17T06:35:40.420Z,46.7
2017-07-17T06:36:42.222Z,46.8
2017-07-17T06:37:44.361Z,46.9
2017-07-17T06:38:45.473Z,46.9
2017-07-17T06:39:47.272Z,47.1
2017-07-17T06:40:49.406Z,46.6
2017-07-17T06:41:51.207Z,46.8
2017-07-17T06:42:53.344Z,47
2017-07-17T06:43:55.483Z,46.9
2017-07-17T06:44:57.620Z,46.9
2017-07-17T06:45:59.088Z,46.9
2017-07-17T06:47:01.222Z,47
2017-07-17T06:48:02.690Z,47
2017-07-17T06:49:04.491Z,47.1
2017-07-17T06:50:06.294Z,47
2017-07-17T06:51:08.094Z,46.7
2017-07-17T06:52:09.875Z,46.8
2017-07-17T06:53:11.324Z,46.8
2017-07-17T06:54:13.104Z,46.9
2017-07-17T06:55:15.241Z,47.1
2017-07-17T06:56:17.039Z,46.7
2017-07-17T06:57:19.175Z,46.7
2017-07-17T06:58:21.326Z,46.8
2017-07-17T06:59:23.120Z,46.6
2017-07-17T07:00:24.566Z,46.7
2017-07-17T07:01:26.703Z,46.5
2017-07-17T07:02:27.810Z,46.6
2017-07-17T07:03:29.949Z,46.4
2017-07-17T07:04:32.084Z,46.5
2017-07-17T07:05:34.218Z,46.5
2017-07-17T07:06:35.334Z,46.4
2017-07-17T07:07:37.138Z,46.4
2017-07-17T07:08:39.274Z,46.6
2017-07-17T07:09:40.737Z,46.7
2017-07-17T07:10:42.519Z,46.4
2017-07-17T07:11:43.986Z,46.5
2017-07-17T07:12:46.122Z,46.4
2017-07-17T07:13:47.924Z,46.4
2017-07-17T07:14:50.066Z,46.5
2017-07-17T07:15:51.869Z,46.4
2017-07-17T07:16:53.336Z,46.5
2017-07-17T07:17:55.114Z,46.6
2017-07-17T07:18:56.582Z,46.5
2017-07-17T07:19:58.732Z,46.4
2017-07-17T07:21:00.865Z,46.7
2017-07-17T07:22:02.333Z,46.5
2017-07-17T07:23:04.137Z,46.4
2017-07-17T07:24:05.277Z,46.4
2017-07-17T07:25:07.086Z,46.4
2017-07-17T07:26:09.222Z,46.3
2017-07-17T07:27:10.999Z,46.3
2017-07-17T07:28:12.802Z,46.8
2017-07-17T07:29:14.603Z,46.3
2017-07-17T07:30:16.404Z,46.2
2017-07-17T07:31:18.538Z,46.4
2017-07-17T07:32:19.987Z,46.1
2017-07-17T07:33:21.092Z,46.4
2017-07-17T07:34:22.536Z,46.4
2017-07-17T07:35:24.334Z,46.1
2017-07-17T07:36:25.797Z,46.1
2017-07-17T07:37:27.266Z,46.1
2017-07-17T07:38:29.399Z,46.4
2017-07-17T07:39:30.866Z,46.4
2017-07-17T07:40:32.333Z,46.4
2017-07-17T07:41:33.778Z,46.5
2017-07-17T07:42:35.249Z,46.5
2017-07-17T07:43:37.050Z,46.6
2017-07-17T07:44:39.185Z,46.5
2017-07-17T07:45:40.296Z,46.2
2017-07-17T07:46:42.432Z,46.2
2017-07-17T07:47:44.569Z,46.2
2017-07-17T07:48:46.090Z,46.2
2017-07-17T07:49:47.889Z,46.1
2017-07-17T07:50:50.024Z,46.2
2017-07-17T07:51:51.470Z,46.5
2017-07-17T07:52:52.585Z,46.2
2017-07-17T07:53:54.724Z,46.3
2017-07-17T07:54:56.858Z,46.2
2017-07-17T07:55:58.638Z,46.3
2017-07-17T07:57:00.436Z,46.1
2017-07-17T07:58:02.571Z,46.3
2017-07-17T07:59:04.374Z,45.8
2017-07-17T08:00:05.843Z,46
2017-07-17T08:01:07.648Z,46.2
2017-07-17T08:02:09.451Z,46
2017-07-17T08:03:11.255Z,46.3
2017-07-17T08:04:12.719Z,46.1
2017-07-17T08:05:13.828Z,46.2
2017-07-17T08:06:15.964Z,46
2017-07-17T08:07:17.102Z,46.1
2017-07-17T08:08:18.569Z,45.9
2017-07-17T08:09:20.019Z,46
2017-07-17T08:10:21.463Z,46
2017-07-17T08:11:23.266Z,46.2
2017-07-17T08:12:25.042Z,45.9
2017-07-17T08:13:26.845Z,46.3
2017-07-17T08:14:28.987Z,46
2017-07-17T08:15:30.785Z,46.1
2017-07-17T08:16:31.895Z,46.4
2017-07-17T08:17:33.696Z,46.5
2017-07-17T08:18:35.140Z,46
2017-07-17T08:19:36.945Z,46.2
2017-07-17T08:20:38.745Z,46.2
2017-07-17T08:21:40.210Z,46.2
2017-07-17T08:22:42.343Z,46.3
2017-07-17T08:23:44.143Z,46.1
2017-07-17T08:24:45.949Z,46.4
2017-07-17T08:25:48.090Z,46.3
2017-07-17T08:26:49.558Z,46.3
2017-07-17T08:27:51.339Z,46.3
2017-07-17T08:28:52.806Z,46.2
2017-07-17T08:29:54.277Z,46.1
2017-07-17T08:30:56.075Z,46.1
2017-07-17T08:31:57.914Z,46.3
2017-07-17T08:32:59.701Z,46.3
2017-07-17T08:34:01.837Z,46.2
2017-07-17T08:35:03.637Z,46.3
2017-07-17T08:36:05.439Z,46.1
2017-07-17T08:37:06.884Z,46.3
2017-07-17T08:38:08.324Z,46.3
2017-07-17T08:39:10.460Z,46.3
2017-07-17T08:40:11.575Z,46.3
2017-07-17T08:41:13.038Z,46.2
2017-07-17T08:42:15.189Z,46.3
2017-07-17T08:43:16.981Z,46.3
2017-07-17T08:44:18.780Z,46.3
2017-07-17T08:45:20.225Z,46.2
2017-07-17T08:46:21.698Z,46.2
2017-07-17T08:47:23.476Z,46.3
2017-07-17T08:48:25.280Z,45.8
2017-07-17T08:49:27.418Z,46.4
2017-07-17T08:50:29.555Z,46.3
2017-07-17T08:51:31.352Z,46
2017-07-17T08:52:32.798Z,46.1
2017-07-17T08:53:34.941Z,45.9
2017-07-17T08:54:36.053Z,46.1
2017-07-17T08:55:38.192Z,45.9
2017-07-17T08:56:39.989Z,45.8
2017-07-17T08:57:42.125Z,46.2
2017-07-17T08:58:43.567Z,45.8
2017-07-17T08:59:45.016Z,45.8
2017-07-17T09:00:46.485Z,46.1
2017-07-17T09:01:48.306Z,46.1
2017-07-17T09:02:50.433Z,46
2017-07-17T09:03:51.875Z,45.9
2017-07-17T09:04:53.680Z,45.9
2017-07-17T09:05:55.480Z,46.1
2017-07-17T09:06:56.942Z,45.9
2017-07-17T09:07:58.747Z,46
2017-07-17T09:09:00.192Z,45.9
2017-07-17T09:10:01.999Z,45.9
2017-07-17T09:11:03.445Z,46
2017-07-17T09:12:05.581Z,46
2017-07-17T09:13:07.365Z,45.9
2017-07-17T09:14:09.143Z,45.7
2017-07-17T09:15:10.947Z,46
2017-07-17T09:16:13.084Z,45.9
2017-07-17T09:17:14.884Z,45.8
2017-07-17T09:18:16.351Z,45.9
2017-07-17T09:19:18.490Z,46
2017-07-17T09:20:19.940Z,46
2017-07-17T09:21:21.726Z,46
2017-07-17T09:22:23.523Z,45.9
2017-07-17T09:23:24.973Z,46.1
2017-07-17T09:24:26.104Z,45.8
2017-07-17T09:25:27.218Z,46.4
2017-07-17T09:26:28.663Z,46.1
2017-07-17T09:27:30.797Z,45.9
2017-07-17T09:28:32.241Z,46.1
2017-07-17T09:29:34.376Z,46.1
2017-07-17T09:30:36.512Z,45.9
2017-07-17T09:31:37.958Z,46
2017-07-17T09:32:40.092Z,46.3
2017-07-17T09:33:41.537Z,46.1
2017-07-17T09:34:43.342Z,45.9
2017-07-17T09:35:45.143Z,45.6
2017-07-17T09:36:46.921Z,45.7
2017-07-17T09:37:48.367Z,45.9
2017-07-17T09:38:50.503Z,45.9
2017-07-17T09:39:51.971Z,45.6
2017-07-17T09:40:54.109Z,45.9
2017-07-17T09:41:56.244Z,45.9
2017-07-17T09:42:58.378Z,45.8
2017-07-17T09:44:00.513Z,45.9
2017-07-17T09:45:02.677Z,45.9
2017-07-17T09:46:04.533Z,45.8
2017-07-17T09:47:06.331Z,45.4
2017-07-17T09:48:08.468Z,45.8
2017-07-17T09:49:10.606Z,45.8
2017-07-17T09:50:12.407Z,45.4
2017-07-17T09:51:14.542Z,45.7
2017-07-17T09:52:16.344Z,45.7
2017-07-17T09:53:17.787Z,45.5
2017-07-17T09:54:19.573Z,45.7
2017-07-17T09:55:21.708Z,45.9
2017-07-17T09:56:23.844Z,45.6
2017-07-17T09:57:25.624Z,45.6
2017-07-17T09:58:27.430Z,45.5
2017-07-17T09:59:29.232Z,45.8
2017-07-17T10:00:31.037Z,45.8
2017-07-17T10:01:32.838Z,45.5
2017-07-17T10:02:34.641Z,45.6
2017-07-17T10:03:36.085Z,46
2017-07-17T10:04:37.532Z,45.6
2017-07-17T10:05:38.640Z,45.6
2017-07-17T10:06:40.106Z,46
2017-07-17T10:07:41.907Z,45.4
2017-07-17T10:08:44.051Z,45.4
2017-07-17T10:09:46.183Z,45.7
2017-07-17T10:10:48.324Z,45.7
2017-07-17T10:11:50.462Z,45.7
2017-07-17T10:12:52.598Z,45.6
2017-07-17T10:13:54.734Z,45.6
2017-07-17T10:14:56.534Z,45.5
2017-07-17T10:15:58.670Z,45.6
2017-07-17T10:17:00.454Z,45.7
2017-07-17T10:18:01.923Z,45.8
2017-07-17T10:19:04.062Z,45.7
2017-07-17T10:20:05.865Z,45.7
2017-07-17T10:21:06.976Z,45.7
2017-07-17T10:22:08.778Z,45.6
2017-07-17T10:23:10.563Z,45.6
2017-07-17T10:24:12.009Z,45.7
2017-07-17T10:25:13.453Z,45.5
2017-07-17T10:26:15.589Z,45.7
2017-07-17T10:27:17.828Z,45.7
2017-07-17T10:28:19.627Z,45.6
2017-07-17T10:29:21.095Z,45.6
2017-07-17T10:30:22.898Z,45.6
2017-07-17T10:31:24.699Z,45.6
2017-07-17T10:32:26.834Z,45.7
2017-07-17T10:33:28.969Z,45.3
2017-07-17T10:34:31.107Z,45.4
2017-07-17T10:35:32.574Z,45.7
2017-07-17T10:36:34.042Z,45.5
2017-07-17T10:37:36.181Z,45.4
2017-07-17T10:38:37.621Z,45.4
2017-07-17T10:39:38.731Z,45.4
2017-07-17T10:40:40.869Z,45.5
2017-07-17T10:41:42.319Z,45.6
2017-07-17T10:42:44.149Z,45.5
2017-07-17T10:43:45.282Z,45.7
2017-07-17T10:44:47.418Z,45.5
2017-07-17T10:45:49.552Z,45.7
2017-07-17T10:46:51.353Z,45.5
2017-07-17T10:47:52.831Z,45.4
2017-07-17T10:48:54.633Z,45.6
2017-07-17T10:49:56.772Z,45.6
2017-07-17T10:50:58.575Z,45.6
2017-07-17T10:52:00.716Z,45.5
2017-07-17T10:53:02.520Z,45.4
2017-07-17T10:54:03.965Z,45.6
2017-07-17T10:55:05.075Z,45.6
2017-07-17T10:56:06.546Z,45.6
2017-07-17T10:57:08.685Z,45.4
2017-07-17T10:58:10.819Z,45.4
2017-07-17T10:59:12.624Z,45.3
2017-07-17T11:00:13.741Z,45.4
2017-07-17T11:01:14.847Z,45.7
2017-07-17T11:02:16.317Z,45.6
2017-07-17T11:03:18.454Z,45.6
2017-07-17T11:04:20.259Z,45.7
2017-07-17T11:05:22.394Z,45.6
2017-07-17T11:06:24.196Z,45.5
2017-07-17T11:07:25.306Z,45.6
2017-07-17T11:08:27.443Z,45.6
2017-07-17T11:09:28.577Z,45.6
2017-07-17T11:10:30.029Z,45.5
2017-07-17T11:11:31.829Z,45.8
2017-07-17T11:12:33.628Z,45.5
2017-07-17T11:13:35.761Z,45.5
2017-07-17T11:14:37.560Z,45.8
2017-07-17T11:15:39.363Z,45.8
2017-07-17T11:16:41.165Z,45.9
2017-07-17T11:17:42.610Z,45.9
2017-07-17T11:18:44.076Z,45.6
2017-07-17T11:19:45.877Z,45.6
2017-07-17T11:20:47.682Z,45.7
2017-07-17T11:21:49.817Z,45.5
2017-07-17T11:22:51.617Z,46.1
2017-07-17T11:23:52.393Z,45.9
2017-07-17T11:24:54.171Z,45.9
2017-07-17T11:25:55.975Z,45.8
2017-07-17T11:26:57.790Z,46.3
2017-07-17T11:27:59.915Z,46.2
2017-07-17T11:29:01.379Z,45.9
2017-07-17T11:30:03.182Z,46.1
2017-07-17T11:31:04.648Z,45.7
2017-07-17T11:32:06.118Z,45.8
2017-07-17T11:33:07.561Z,45.8
2017-07-17T11:34:09.003Z,46.2
2017-07-17T11:35:10.804Z,46.2
2017-07-17T11:36:11.940Z,45.8
2017-07-17T11:37:13.380Z,46.5
2017-07-17T11:38:15.517Z,46.3
2017-07-17T11:39:17.651Z,46.2
2017-07-17T11:40:19.432Z,46.2
2017-07-17T11:41:20.897Z,46.4
2017-07-17T11:42:22.699Z,46.2
2017-07-17T11:43:23.476Z,46
2017-07-17T11:44:25.272Z,46.2
2017-07-17T11:45:26.816Z,45.9
2017-07-17T11:56:56.722Z,46.4
2017-07-17T11:58:59.257Z,47
2017-07-17T12:00:01.055Z,46.7
2017-07-17T12:01:02.862Z,46.6
2017-07-17T12:02:04.664Z,46.6
2017-07-17T12:03:06.788Z,46.9
2017-07-17T12:04:08.923Z,46.9
2017-07-17T12:06:11.454Z,46.9
2017-07-17T12:07:13.249Z,46.7
2017-07-17T12:08:15.381Z,46.7
2017-07-17T12:09:17.179Z,46.7
2017-07-17T12:10:19.314Z,47
2017-07-17T12:11:21.112Z,46.7
2017-07-17T12:12:22.911Z,46.9
2017-07-17T12:13:24.711Z,46.8
2017-07-17T12:14:25.814Z,46.9
2017-07-17T12:15:27.612Z,46.8
2017-07-17T12:16:29.392Z,46.7
2017-07-17T12:17:30.839Z,46.8
2017-07-17T12:18:32.976Z,46.7
2017-07-17T12:19:35.112Z,46.7
2017-07-17T12:20:36.890Z,46.4
2017-07-17T12:21:38.020Z,46.3
2017-07-17T12:22:39.821Z,46.5
2017-07-17T12:23:41.620Z,46.8
2017-07-17T12:24:43.398Z,46.7
2017-07-17T12:25:45.532Z,46.7
2017-07-17T12:26:47.666Z,46.5
2017-07-17T12:27:48.771Z,46.5
2017-07-17T12:28:50.906Z,46.7
2017-07-17T12:29:52.684Z,46.4
2017-07-17T12:30:54.481Z,46.6
2017-07-17T12:31:56.281Z,46.9
2017-07-17T12:32:58.080Z,46.5
2017-07-17T12:33:59.886Z,46.6
2017-07-17T12:35:02.021Z,46.6
2017-07-17T12:36:03.820Z,46.7
2017-07-17T12:37:05.282Z,46.5
2017-07-17T12:38:07.417Z,46.6
2017-07-17T12:39:09.214Z,46.7
2017-07-17T12:40:11.348Z,46.9
2017-07-17T12:41:13.480Z,46.5
2017-07-17T12:42:15.278Z,46.8
2017-07-17T12:43:17.417Z,46.5
2017-07-17T12:44:18.189Z,46.6
2017-07-17T12:45:19.653Z,46.4
2017-07-17T12:46:21.788Z,46.4
2017-07-17T12:47:23.595Z,46.5
2017-07-17T12:48:25.035Z,46.5
2017-07-17T12:49:27.170Z,46.4
2017-07-17T12:50:28.278Z,46.8
2017-07-17T12:51:30.075Z,46.8
2017-07-17T12:52:31.875Z,46.6
2017-07-17T12:53:33.655Z,46.6
2017-07-17T12:54:35.789Z,46.5
2017-07-17T12:55:37.260Z,46.5
2017-07-17T12:56:39.111Z,46.8
2017-07-17T12:57:40.906Z,46.9
2017-07-17T12:58:43.038Z,46.5
2017-07-17T12:59:44.839Z,46.8
2017-07-17T13:00:46.971Z,46.7
2017-07-17T13:01:49.157Z,46.5
2017-07-17T13:02:50.621Z,47
2017-07-17T13:03:52.418Z,46.9
2017-07-17T13:04:53.887Z,46.7
2017-07-17T13:05:55.327Z,47
2017-07-17T13:06:56.793Z,46.8
2017-07-17T13:07:58.599Z,46.9
2017-07-17T13:09:00.731Z,47.1
2017-07-17T13:10:02.863Z,47.1
2017-07-17T13:11:04.306Z,46.8
2017-07-17T13:12:05.417Z,46.5
2017-07-17T13:13:07.214Z,46.5
2017-07-17T13:14:09.013Z,46.7
2017-07-17T13:15:10.813Z,46.9
2017-07-17T13:16:12.282Z,47
2017-07-17T13:17:14.083Z,46.7
2017-07-17T13:18:15.548Z,46.7
2017-07-17T13:19:16.990Z,46.9
2017-07-17T13:20:19.125Z,47.1
2017-07-17T13:21:20.924Z,47.1
2017-07-17T13:22:23.157Z,47
2017-07-17T13:23:25.287Z,47.1
2017-07-17T13:24:26.415Z,46.6
2017-07-17T13:25:28.215Z,46.5
2017-07-17T13:26:30.352Z,46.6
2017-07-17T13:27:31.459Z,46.4
2017-07-17T13:28:33.593Z,46.6
2017-07-17T13:29:34.719Z,46.4
2017-07-17T13:30:36.165Z,46.4
2017-07-17T13:31:37.627Z,46.4
2017-07-17T13:32:39.425Z,46.8
2017-07-17T13:33:41.226Z,46.5
2017-07-17T13:34:43.359Z,46.5
2017-07-17T13:35:44.809Z,46.3
2017-07-17T13:36:46.584Z,46.5
2017-07-17T13:37:48.720Z,46.4
2017-07-17T13:38:50.519Z,46.5
2017-07-17T13:39:52.319Z,46.5
2017-07-17T13:40:54.116Z,46.7
2017-07-17T13:41:55.579Z,46.9
2017-07-17T13:42:57.023Z,46.5
2017-07-17T13:43:59.158Z,46.6
2017-07-17T13:45:00.959Z,46.6
2017-07-17T13:46:02.760Z,46.5
2017-07-17T13:47:04.205Z,46.6
2017-07-17T13:48:05.983Z,46.8
2017-07-17T13:49:07.781Z,46.7
2017-07-17T13:50:09.221Z,46.7
2017-07-17T13:51:11.023Z,46.6
2017-07-17T13:52:12.821Z,46.7
2017-07-17T13:53:14.624Z,46.8
2017-07-17T13:54:16.432Z,46.5
2017-07-17T13:55:18.558Z,46.7
2017-07-17T13:56:20.691Z,46.5
2017-07-17T13:57:22.830Z,46.5
2017-07-17T13:58:24.273Z,46.5
2017-07-17T13:59:26.075Z,46.3
2017-07-17T14:00:28.206Z,46.3
2017-07-17T14:01:30.346Z,46.2
2017-07-17T14:02:31.801Z,46.2
2017-07-17T14:03:33.597Z,46.4